DLH2UX EDDF-EHAM
Flight info
| Callsign | DLH2UX |
|---|---|
| Flight time | 0h 54m |
| Altitude | 24000 |
| Route | MARUN8M/25C MARUN Y152 ARPEG Z850 ABILU DCT NORKU |
| Aircraft | A321/M-SDE3FGHIRWY/LB1 |
Departure
| Time | 2026-05-07 07:32 |
|---|---|
| Airport | Frankfurt Main Airport (EDDF) |
Arrival
| Time | 2026-05-07 08:27 |
|---|---|
| Airport | Amsterdam Airport Schiphol (EHAM) |
| Time | Latitude | Longitude | Altitude | Speed | Heading |
|---|---|---|---|---|---|
| 2026-05-07 07:05 | 50.04884 | 8.57153 | 356 ft | 0 kts | 161° |
| 2026-05-07 07:25 | 50.04883 | 8.57153 | 356 ft | 1 kts | 162° |
| 2026-05-07 07:26 | 50.04878 | 8.57150 | 356 ft | 1 kts | 197° |
| 2026-05-07 07:26 | 50.04877 | 8.57145 | 356 ft | 1 kts | 227° |
| 2026-05-07 07:26 | 50.04869 | 8.57131 | 361 ft | 3 kts | 230° |
| 2026-05-07 07:26 | 50.04840 | 8.57078 | 359 ft | 10 kts | 228° |
| 2026-05-07 07:27 | 50.04775 | 8.57020 | 359 ft | 12 kts | 205° |
| 2026-05-07 07:27 | 50.04693 | 8.56962 | 360 ft | 14 kts | 204° |
| 2026-05-07 07:27 | 50.04598 | 8.56908 | 356 ft | 15 kts | 193° |
| 2026-05-07 07:27 | 50.04498 | 8.56871 | 359 ft | 15 kts | 193° |
| 2026-05-07 07:28 | 50.04391 | 8.56841 | 360 ft | 16 kts | 189° |
| 2026-05-07 07:28 | 50.04297 | 8.56829 | 364 ft | 11 kts | 155° |
| 2026-05-07 07:28 | 50.04286 | 8.56944 | 363 ft | 13 kts | 73° |
| 2026-05-07 07:28 | 50.04318 | 8.57077 | 365 ft | 13 kts | 70° |
| 2026-05-07 07:29 | 50.04351 | 8.57219 | 361 ft | 15 kts | 70° |
| 2026-05-07 07:29 | 50.04390 | 8.57382 | 368 ft | 17 kts | 67° |
| 2026-05-07 07:29 | 50.04438 | 8.57562 | 364 ft | 18 kts | 68° |
| 2026-05-07 07:29 | 50.04480 | 8.57747 | 366 ft | 19 kts | 68° |
| 2026-05-07 07:30 | 50.04525 | 8.57949 | 364 ft | 21 kts | 71° |
| 2026-05-07 07:30 | 50.04580 | 8.58171 | 365 ft | 22 kts | 69° |
| 2026-05-07 07:30 | 50.04627 | 8.58369 | 369 ft | 18 kts | 70° |
| 2026-05-07 07:30 | 50.04654 | 8.58515 | 371 ft | 11 kts | 99° |
| 2026-05-07 07:31 | 50.04595 | 8.58589 | 372 ft | 12 kts | 161° |
| 2026-05-07 07:31 | 50.04518 | 8.58617 | 371 ft | 11 kts | 189° |
| 2026-05-07 07:31 | 50.04471 | 8.58521 | 370 ft | 13 kts | 250° |
| 2026-05-07 07:31 | 50.04435 | 8.58371 | 373 ft | 21 kts | 249° |
| 2026-05-07 07:32 | 50.04289 | 8.57759 | 367 ft | 100 kts | 249° |
| 2026-05-07 07:32 | 50.03970 | 8.56416 | 365 ft | 162 kts | 252° |
| 2026-05-07 07:32 | 50.03576 | 8.54747 | 1038 ft | 164 kts | 252° |
| 2026-05-07 07:32 | 50.03182 | 8.53095 | 1839 ft | 170 kts | 252° |
| 2026-05-07 07:33 | 50.02743 | 8.51269 | 2272 ft | 191 kts | 251° |
| 2026-05-07 07:33 | 50.01865 | 8.49635 | 2712 ft | 211 kts | 210° |
| 2026-05-07 07:33 | 50.00468 | 8.48847 | 3420 ft | 216 kts | 199° |
| 2026-05-07 07:33 | 49.99014 | 8.48210 | 4271 ft | 218 kts | 197° |
| 2026-05-07 07:34 | 49.97541 | 8.47594 | 5065 ft | 221 kts | 196° |
| 2026-05-07 07:34 | 49.96046 | 8.46963 | 5833 ft | 224 kts | 197° |
| 2026-05-07 07:34 | 49.94474 | 8.46277 | 6282 ft | 246 kts | 198° |
| 2026-05-07 07:34 | 49.92774 | 8.45512 | 6815 ft | 259 kts | 199° |
| 2026-05-07 07:35 | 49.91178 | 8.44261 | 7526 ft | 258 kts | 226° |
| 2026-05-07 07:35 | 49.90255 | 8.41992 | 8308 ft | 252 kts | 258° |
| 2026-05-07 07:35 | 49.90237 | 8.39328 | 9136 ft | 249 kts | 287° |
| 2026-05-07 07:35 | 49.91103 | 8.37038 | 9946 ft | 251 kts | 316° |
| 2026-05-07 07:36 | 49.92616 | 8.35614 | 10474 ft | 266 kts | 334° |
| 2026-05-07 07:36 | 49.94388 | 8.34424 | 10703 ft | 289 kts | 335° |
| 2026-05-07 07:36 | 49.96321 | 8.33176 | 10875 ft | 312 kts | 336° |
| 2026-05-07 07:36 | 49.98368 | 8.31868 | 11316 ft | 323 kts | 336° |
| 2026-05-07 07:37 | 50.00462 | 8.30529 | 11945 ft | 328 kts | 336° |
| 2026-05-07 07:37 | 50.02619 | 8.29316 | 12588 ft | 333 kts | 345° |
| 2026-05-07 07:37 | 50.04934 | 8.28878 | 13235 ft | 339 kts | 359° |
| 2026-05-07 07:37 | 50.07272 | 8.28911 | 13895 ft | 342 kts | 359° |
| 2026-05-07 07:38 | 50.09661 | 8.28945 | 14497 ft | 345 kts | 360° |
| 2026-05-07 07:38 | 50.12076 | 8.28984 | 15114 ft | 348 kts | 359° |
| 2026-05-07 07:38 | 50.14506 | 8.29024 | 15740 ft | 351 kts | 359° |
| 2026-05-07 07:38 | 50.16958 | 8.29064 | 16349 ft | 354 kts | 359° |
| 2026-05-07 07:39 | 50.19432 | 8.29108 | 16954 ft | 357 kts | 359° |
| 2026-05-07 07:39 | 50.21925 | 8.29154 | 17568 ft | 360 kts | 0° |
| 2026-05-07 07:39 | 50.24443 | 8.29201 | 18103 ft | 364 kts | 360° |
| 2026-05-07 07:39 | 50.26987 | 8.29248 | 18655 ft | 367 kts | 0° |
| 2026-05-07 07:40 | 50.29545 | 8.29300 | 19182 ft | 369 kts | 0° |
| 2026-05-07 07:40 | 50.32086 | 8.29348 | 19674 ft | 372 kts | 360° |
| 2026-05-07 07:40 | 50.34682 | 8.29392 | 20191 ft | 375 kts | 360° |
| 2026-05-07 07:40 | 50.37297 | 8.29438 | 20723 ft | 377 kts | 360° |
| 2026-05-07 07:41 | 50.39929 | 8.29484 | 21193 ft | 380 kts | 360° |
| 2026-05-07 07:41 | 50.42588 | 8.29531 | 21674 ft | 383 kts | 0° |
| 2026-05-07 07:41 | 50.45264 | 8.29583 | 22169 ft | 386 kts | 359° |
| 2026-05-07 07:41 | 50.47959 | 8.29639 | 22643 ft | 389 kts | 0° |
| 2026-05-07 07:42 | 50.50674 | 8.29694 | 23106 ft | 392 kts | 359° |
| 2026-05-07 07:42 | 50.53407 | 8.29743 | 23579 ft | 394 kts | 360° |
| 2026-05-07 07:42 | 50.56119 | 8.29788 | 23888 ft | 397 kts | 359° |
| 2026-05-07 07:42 | 50.58876 | 8.29835 | 23961 ft | 390 kts | 0° |
| 2026-05-07 07:43 | 50.61544 | 8.29887 | 23980 ft | 380 kts | 360° |
| 2026-05-07 07:43 | 50.64175 | 8.29939 | 23975 ft | 377 kts | 0° |
| 2026-05-07 07:43 | 50.66804 | 8.29984 | 23976 ft | 377 kts | 359° |
| 2026-05-07 07:43 | 50.69428 | 8.30030 | 23973 ft | 377 kts | 359° |
| 2026-05-07 07:44 | 50.72049 | 8.30081 | 23978 ft | 377 kts | 359° |
| 2026-05-07 07:44 | 50.74672 | 8.30133 | 23974 ft | 377 kts | 359° |
| 2026-05-07 07:44 | 50.77296 | 8.30182 | 23974 ft | 377 kts | 360° |
| 2026-05-07 07:44 | 50.79882 | 8.30229 | 23974 ft | 377 kts | 360° |
| 2026-05-07 07:45 | 50.82507 | 8.30281 | 23974 ft | 378 kts | 359° |
| 2026-05-07 07:45 | 50.85135 | 8.30332 | 23978 ft | 378 kts | 359° |
| 2026-05-07 07:45 | 50.87763 | 8.30379 | 23980 ft | 377 kts | 360° |
| 2026-05-07 07:45 | 50.90390 | 8.30424 | 23978 ft | 378 kts | 0° |
| 2026-05-07 07:46 | 50.93015 | 8.30469 | 23992 ft | 377 kts | 360° |
| 2026-05-07 07:46 | 50.95640 | 8.30520 | 23994 ft | 377 kts | 0° |
| 2026-05-07 07:46 | 50.98264 | 8.30564 | 23989 ft | 377 kts | 358° |
| 2026-05-07 07:46 | 51.00832 | 8.30141 | 23993 ft | 376 kts | 347° |
| 2026-05-07 07:47 | 51.03332 | 8.28958 | 23992 ft | 375 kts | 337° |
| 2026-05-07 07:47 | 51.05655 | 8.27089 | 23986 ft | 375 kts | 330° |
| 2026-05-07 07:47 | 51.07929 | 8.25051 | 23981 ft | 376 kts | 330° |
| 2026-05-07 07:47 | 51.10208 | 8.23012 | 23978 ft | 376 kts | 330° |
| 2026-05-07 07:48 | 51.12492 | 8.20976 | 23976 ft | 377 kts | 330° |
| 2026-05-07 07:48 | 51.14781 | 8.18942 | 23983 ft | 377 kts | 330° |
| 2026-05-07 07:48 | 51.17071 | 8.16909 | 24000 ft | 377 kts | 330° |
| 2026-05-07 07:48 | 51.19327 | 8.14900 | 23999 ft | 377 kts | 330° |
| 2026-05-07 07:49 | 51.21612 | 8.12859 | 23998 ft | 377 kts | 330° |
| 2026-05-07 07:49 | 51.23899 | 8.10807 | 23994 ft | 377 kts | 330° |
| 2026-05-07 07:49 | 51.26185 | 8.08753 | 23995 ft | 377 kts | 330° |
| 2026-05-07 07:49 | 51.28468 | 8.06702 | 23998 ft | 377 kts | 330° |
| 2026-05-07 07:50 | 51.30751 | 8.04651 | 24008 ft | 376 kts | 330° |
| 2026-05-07 07:50 | 51.33032 | 8.02597 | 24019 ft | 376 kts | 330° |
| 2026-05-07 07:50 | 51.35285 | 8.00568 | 24019 ft | 376 kts | 330° |
| 2026-05-07 07:50 | 51.37563 | 7.98515 | 24022 ft | 377 kts | 330° |
| 2026-05-07 07:51 | 51.39847 | 7.96457 | 24019 ft | 377 kts | 330° |
| 2026-05-07 07:51 | 51.42048 | 7.94189 | 24018 ft | 376 kts | 323° |
| 2026-05-07 07:51 | 51.44150 | 7.91687 | 24022 ft | 376 kts | 323° |
| 2026-05-07 07:51 | 51.46249 | 7.89186 | 24029 ft | 376 kts | 323° |
| 2026-05-07 07:52 | 51.48347 | 7.86686 | 24034 ft | 376 kts | 323° |
| 2026-05-07 07:52 | 51.50438 | 7.84193 | 24032 ft | 376 kts | 323° |
| 2026-05-07 07:52 | 51.52538 | 7.81691 | 24037 ft | 376 kts | 323° |
| 2026-05-07 07:52 | 51.54614 | 7.79217 | 24036 ft | 377 kts | 323° |
| 2026-05-07 07:53 | 51.56717 | 7.76705 | 24030 ft | 377 kts | 322° |
| 2026-05-07 07:53 | 51.58819 | 7.74188 | 24030 ft | 377 kts | 323° |
| 2026-05-07 07:53 | 51.60918 | 7.71672 | 24028 ft | 377 kts | 322° |
| 2026-05-07 07:53 | 51.63019 | 7.69154 | 24029 ft | 376 kts | 322° |
| 2026-05-07 07:54 | 51.65119 | 7.66631 | 24037 ft | 376 kts | 322° |
| 2026-05-07 07:54 | 51.67214 | 7.64103 | 24033 ft | 376 kts | 322° |
| 2026-05-07 07:54 | 51.69308 | 7.61575 | 24035 ft | 376 kts | 322° |
| 2026-05-07 07:54 | 51.71404 | 7.59046 | 24033 ft | 376 kts | 322° |
| 2026-05-07 07:55 | 51.73474 | 7.56549 | 24028 ft | 377 kts | 322° |
| 2026-05-07 07:55 | 51.75569 | 7.54019 | 24030 ft | 377 kts | 322° |
| 2026-05-07 07:55 | 51.77665 | 7.51483 | 24031 ft | 376 kts | 322° |
| 2026-05-07 07:55 | 51.79761 | 7.48941 | 24031 ft | 376 kts | 322° |
| 2026-05-07 07:56 | 51.81853 | 7.46401 | 24038 ft | 376 kts | 322° |
| 2026-05-07 07:56 | 51.83947 | 7.43857 | 24039 ft | 376 kts | 322° |
| 2026-05-07 07:56 | 51.86040 | 7.41311 | 24036 ft | 377 kts | 321° |
| 2026-05-07 07:56 | 51.88133 | 7.38759 | 24032 ft | 377 kts | 322° |
| 2026-05-07 07:57 | 51.90224 | 7.36205 | 24028 ft | 377 kts | 322° |
| 2026-05-07 07:57 | 51.92287 | 7.33680 | 24026 ft | 377 kts | 322° |
| 2026-05-07 07:57 | 51.94381 | 7.31116 | 24028 ft | 377 kts | 322° |
| 2026-05-07 07:57 | 51.96477 | 7.28556 | 24033 ft | 377 kts | 322° |
| 2026-05-07 07:58 | 51.98575 | 7.25996 | 24030 ft | 377 kts | 322° |
| 2026-05-07 07:58 | 52.00670 | 7.23432 | 24029 ft | 377 kts | 322° |
| 2026-05-07 07:58 | 52.02766 | 7.20864 | 24030 ft | 377 kts | 322° |
| 2026-05-07 07:58 | 52.04859 | 7.18292 | 24030 ft | 377 kts | 321° |
| 2026-05-07 07:59 | 52.06951 | 7.15715 | 24034 ft | 377 kts | 322° |
| 2026-05-07 07:59 | 52.09043 | 7.13134 | 24035 ft | 377 kts | 322° |
| 2026-05-07 07:59 | 52.11106 | 7.10586 | 24036 ft | 377 kts | 322° |
| 2026-05-07 07:59 | 52.13207 | 7.07981 | 24025 ft | 379 kts | 321° |
| 2026-05-07 08:00 | 52.15299 | 7.05389 | 24032 ft | 378 kts | 321° |
| 2026-05-07 08:00 | 52.17388 | 7.02803 | 24028 ft | 377 kts | 321° |
| 2026-05-07 08:00 | 52.19478 | 7.00218 | 24028 ft | 377 kts | 321° |
| 2026-05-07 08:00 | 52.21498 | 6.97513 | 24030 ft | 376 kts | 314° |
| 2026-05-07 08:01 | 52.23230 | 6.94329 | 24032 ft | 375 kts | 308° |
| 2026-05-07 08:01 | 52.24877 | 6.91024 | 24031 ft | 375 kts | 308° |
| 2026-05-07 08:01 | 52.26502 | 6.87767 | 24034 ft | 375 kts | 308° |
| 2026-05-07 08:01 | 52.28150 | 6.84470 | 24034 ft | 375 kts | 308° |
| 2026-05-07 08:02 | 52.29798 | 6.81175 | 24029 ft | 375 kts | 308° |
| 2026-05-07 08:02 | 52.31444 | 6.77875 | 24035 ft | 375 kts | 308° |
| 2026-05-07 08:02 | 52.33099 | 6.74557 | 23634 ft | 379 kts | 308° |
| 2026-05-07 08:02 | 52.34757 | 6.71226 | 23087 ft | 375 kts | 308° |
| 2026-05-07 08:03 | 52.36386 | 6.67945 | 22656 ft | 368 kts | 308° |
| 2026-05-07 08:03 | 52.37985 | 6.64716 | 22216 ft | 363 kts | 308° |
| 2026-05-07 08:03 | 52.39561 | 6.61535 | 21780 ft | 357 kts | 308° |
| 2026-05-07 08:03 | 52.41089 | 6.58446 | 21360 ft | 351 kts | 308° |
| 2026-05-07 08:04 | 52.42612 | 6.55359 | 20937 ft | 346 kts | 308° |
| 2026-05-07 08:04 | 52.44113 | 6.52313 | 20523 ft | 341 kts | 308° |
| 2026-05-07 08:04 | 52.45536 | 6.49241 | 20108 ft | 336 kts | 301° |
| 2026-05-07 08:04 | 52.46555 | 6.45837 | 19700 ft | 331 kts | 289° |
| 2026-05-07 08:05 | 52.47090 | 6.42202 | 19297 ft | 326 kts | 276° |
| 2026-05-07 08:05 | 52.47275 | 6.38519 | 18902 ft | 322 kts | 274° |
| 2026-05-07 08:05 | 52.47450 | 6.34870 | 18515 ft | 319 kts | 274° |
| 2026-05-07 08:05 | 52.47626 | 6.31309 | 18102 ft | 316 kts | 275° |
| 2026-05-07 08:06 | 52.47808 | 6.27739 | 17705 ft | 312 kts | 275° |
| 2026-05-07 08:06 | 52.47988 | 6.24228 | 17319 ft | 307 kts | 275° |
| 2026-05-07 08:06 | 52.48161 | 6.20764 | 16948 ft | 303 kts | 275° |
| 2026-05-07 08:06 | 52.48330 | 6.17342 | 16579 ft | 299 kts | 275° |
| 2026-05-07 08:07 | 52.48496 | 6.13961 | 16210 ft | 296 kts | 275° |
| 2026-05-07 08:07 | 52.48658 | 6.10618 | 15849 ft | 292 kts | 274° |
| 2026-05-07 08:07 | 52.48816 | 6.07307 | 15495 ft | 290 kts | 274° |
| 2026-05-07 08:07 | 52.48970 | 6.04032 | 15137 ft | 287 kts | 274° |
| 2026-05-07 08:08 | 52.49122 | 6.00820 | 14795 ft | 285 kts | 275° |
| 2026-05-07 08:08 | 52.49275 | 5.97585 | 14449 ft | 283 kts | 274° |
| 2026-05-07 08:08 | 52.49424 | 5.94376 | 14105 ft | 281 kts | 275° |
| 2026-05-07 08:08 | 52.49572 | 5.91196 | 13751 ft | 279 kts | 274° |
| 2026-05-07 08:09 | 52.49720 | 5.88027 | 13391 ft | 278 kts | 275° |
| 2026-05-07 08:09 | 52.49867 | 5.84878 | 13028 ft | 276 kts | 275° |
| 2026-05-07 08:09 | 52.50012 | 5.81746 | 12682 ft | 275 kts | 274° |
| 2026-05-07 08:09 | 52.50156 | 5.78609 | 12345 ft | 276 kts | 274° |
| 2026-05-07 08:10 | 52.50299 | 5.75473 | 12021 ft | 274 kts | 274° |
| 2026-05-07 08:10 | 52.50439 | 5.72365 | 11691 ft | 272 kts | 274° |
| 2026-05-07 08:10 | 52.50576 | 5.69310 | 11366 ft | 272 kts | 274° |
| 2026-05-07 08:10 | 52.50713 | 5.66224 | 11036 ft | 270 kts | 274° |
| 2026-05-07 08:11 | 52.50847 | 5.63159 | 10709 ft | 268 kts | 274° |
| 2026-05-07 08:11 | 52.50968 | 5.60115 | 10391 ft | 266 kts | 271° |
| 2026-05-07 08:11 | 52.50778 | 5.57111 | 10066 ft | 264 kts | 256° |
| 2026-05-07 08:11 | 52.50141 | 5.54278 | 9844 ft | 273 kts | 243° |
| 2026-05-07 08:12 | 52.49153 | 5.51535 | 9593 ft | 284 kts | 239° |
| 2026-05-07 08:12 | 52.48132 | 5.48769 | 9189 ft | 283 kts | 239° |
| 2026-05-07 08:12 | 52.47115 | 5.46020 | 8787 ft | 281 kts | 239° |
| 2026-05-07 08:12 | 52.46105 | 5.43286 | 8395 ft | 279 kts | 239° |
| 2026-05-07 08:13 | 52.45116 | 5.40608 | 8011 ft | 278 kts | 240° |
| 2026-05-07 08:13 | 52.44119 | 5.37906 | 7620 ft | 276 kts | 239° |
| 2026-05-07 08:13 | 52.43127 | 5.35215 | 7243 ft | 276 kts | 239° |
| 2026-05-07 08:13 | 52.42138 | 5.32534 | 6873 ft | 275 kts | 239° |
| 2026-05-07 08:14 | 52.41150 | 5.29863 | 6489 ft | 274 kts | 240° |
| 2026-05-07 08:14 | 52.40165 | 5.27198 | 6092 ft | 273 kts | 239° |
| 2026-05-07 08:14 | 52.39182 | 5.24544 | 5696 ft | 273 kts | 239° |
| 2026-05-07 08:14 | 52.38195 | 5.21889 | 5306 ft | 273 kts | 239° |
| 2026-05-07 08:15 | 52.37208 | 5.19239 | 4925 ft | 272 kts | 240° |
| 2026-05-07 08:15 | 52.36235 | 5.16639 | 4528 ft | 271 kts | 239° |
| 2026-05-07 08:15 | 52.35252 | 5.14013 | 4154 ft | 271 kts | 239° |
| 2026-05-07 08:15 | 52.34282 | 5.11416 | 4065 ft | 267 kts | 240° |
| 2026-05-07 08:16 | 52.33288 | 5.08838 | 4071 ft | 269 kts | 237° |
| 2026-05-07 08:16 | 52.32264 | 5.06282 | 4070 ft | 268 kts | 238° |
| 2026-05-07 08:16 | 52.31237 | 5.03735 | 4070 ft | 269 kts | 238° |
| 2026-05-07 08:16 | 52.30205 | 5.01186 | 4072 ft | 269 kts | 238° |
| 2026-05-07 08:17 | 52.29170 | 4.98640 | 4080 ft | 270 kts | 238° |
| 2026-05-07 08:17 | 52.28130 | 4.96092 | 4080 ft | 269 kts | 238° |
| 2026-05-07 08:17 | 52.27446 | 4.94406 | 4024 ft | 268 kts | 238° |
| 2026-05-07 08:17 | 52.26424 | 4.91876 | 3652 ft | 266 kts | 238° |
| 2026-05-07 08:18 | 52.25415 | 4.89360 | 3255 ft | 265 kts | 238° |
| 2026-05-07 08:18 | 52.24082 | 4.86033 | 2742 ft | 264 kts | 237° |
| 2026-05-07 08:18 | 52.23082 | 4.83527 | 2357 ft | 263 kts | 238° |
| 2026-05-07 08:18 | 52.22410 | 4.81845 | 2087 ft | 262 kts | 238° |
| 2026-05-07 08:19 | 52.21424 | 4.79372 | 2002 ft | 261 kts | 237° |
| 2026-05-07 08:19 | 52.20455 | 4.76924 | 2001 ft | 260 kts | 238° |
| 2026-05-07 08:19 | 52.19473 | 4.74433 | 2005 ft | 261 kts | 238° |
| 2026-05-07 08:19 | 52.18481 | 4.71944 | 2003 ft | 262 kts | 238° |
| 2026-05-07 08:20 | 52.17485 | 4.69447 | 2001 ft | 263 kts | 237° |
| 2026-05-07 08:20 | 52.16488 | 4.66949 | 1983 ft | 264 kts | 238° |
| 2026-05-07 08:20 | 52.15194 | 4.63723 | 1973 ft | 246 kts | 237° |
| 2026-05-07 08:20 | 52.14395 | 4.61374 | 1972 ft | 232 kts | 256° |
| 2026-05-07 08:21 | 52.14279 | 4.59652 | 1979 ft | 224 kts | 278° |
| 2026-05-07 08:21 | 52.14834 | 4.57396 | 1976 ft | 218 kts | 312° |
| 2026-05-07 08:21 | 52.15913 | 4.55676 | 1981 ft | 217 kts | 321° |
| 2026-05-07 08:21 | 52.17069 | 4.54097 | 1977 ft | 217 kts | 323° |
| 2026-05-07 08:22 | 52.18246 | 4.52566 | 1982 ft | 216 kts | 330° |
| 2026-05-07 08:22 | 52.19649 | 4.51971 | 1984 ft | 211 kts | 10° |
| 2026-05-07 08:22 | 52.20910 | 4.53061 | 1985 ft | 209 kts | 51° |
| 2026-05-07 08:22 | 52.21689 | 4.54983 | 1991 ft | 197 kts | 58° |
| 2026-05-07 08:23 | 52.22374 | 4.56780 | 1988 ft | 177 kts | 57° |
| 2026-05-07 08:23 | 52.23001 | 4.58408 | 1985 ft | 157 kts | 57° |
| 2026-05-07 08:23 | 52.23549 | 4.59827 | 1920 ft | 142 kts | 56° |
| 2026-05-07 08:23 | 52.24059 | 4.61147 | 1783 ft | 137 kts | 57° |
| 2026-05-07 08:24 | 52.24564 | 4.62452 | 1610 ft | 136 kts | 57° |
| 2026-05-07 08:24 | 52.25064 | 4.63749 | 1437 ft | 134 kts | 56° |
| 2026-05-07 08:24 | 52.25561 | 4.65036 | 1208 ft | 134 kts | 56° |
| 2026-05-07 08:24 | 52.26055 | 4.66314 | 1058 ft | 135 kts | 56° |
| 2026-05-07 08:25 | 52.26551 | 4.67596 | 871 ft | 134 kts | 58° |
| 2026-05-07 08:25 | 52.27050 | 4.68888 | 716 ft | 135 kts | 58° |
| 2026-05-07 08:25 | 52.27543 | 4.70175 | 578 ft | 132 kts | 57° |
| 2026-05-07 08:25 | 52.28028 | 4.71440 | 384 ft | 133 kts | 57° |
| 2026-05-07 08:26 | 52.28999 | 4.73955 | 38 ft | 130 kts | 58° |
| 2026-05-07 08:26 | 52.29452 | 4.75117 | 1 ft | 111 kts | 58° |
| 2026-05-07 08:26 | 52.29787 | 4.76004 | -4 ft | 68 kts | 58° |
| 2026-05-07 08:27 | 52.29955 | 4.76439 | -3 ft | 30 kts | 54° |
| 2026-05-07 08:27 | 52.30095 | 4.76593 | -1 ft | 20 kts | 28° |
| 2026-05-07 08:27 | 52.30182 | 4.76672 | -1 ft | 6 kts | 30° |
| 2026-05-07 08:27 | 52.30193 | 4.76682 | -1 ft | 0 kts | 28° |
| 2026-05-07 08:28 | 52.30216 | 4.76700 | -1 ft | 6 kts | 25° |
| 2026-05-07 08:28 | 52.30265 | 4.76732 | -1 ft | 9 kts | 13° |
| 2026-05-07 08:28 | 52.30328 | 4.76713 | -1 ft | 10 kts | 326° |
| 2026-05-07 08:28 | 52.30343 | 4.76671 | -1 ft | 4 kts | 278° |
| 2026-05-07 08:29 | 52.30334 | 4.76579 | -1 ft | 11 kts | 280° |
| 2026-05-07 08:29 | 52.30391 | 4.76482 | -1 ft | 13 kts | 326° |
| 2026-05-07 08:29 | 52.30475 | 4.76395 | -1 ft | 14 kts | 328° |
| 2026-05-07 08:29 | 52.30493 | 4.76347 | -1 ft | 5 kts | 263° |
| 2026-05-07 08:30 | 52.30483 | 4.76310 | -1 ft | 3 kts | 240° |
| 2026-05-07 08:30 | 52.30477 | 4.76292 | -1 ft | 0 kts | 239° |